createdAt,value
2022-11-26T00:00:48.346Z,30.90
2022-11-26T00:03:15.466Z,28.10
2022-11-26T00:05:47.122Z,27.50
2022-11-26T00:08:25.478Z,28.48
2022-11-26T00:10:54.070Z,27.65
2022-11-26T00:13:23.957Z,29.73
2022-11-26T00:15:51.415Z,27.65
2022-11-26T00:18:19.213Z,25.63
2022-11-26T00:20:46.855Z,24.20
2022-11-26T00:23:22.497Z,22.67
2022-11-26T00:25:53.574Z,21.85
2022-11-26T00:28:36.015Z,25.95
2022-11-26T00:31:06.111Z,23.58
2022-11-26T00:33:33.461Z,19.83
2022-11-26T00:36:12.301Z,24.77
2022-11-26T00:38:39.009Z,22.13
2022-11-26T00:41:08.686Z,21.45
2022-11-26T00:43:35.391Z,21.75
2022-11-26T00:46:02.156Z,23.88
2022-11-26T00:48:29.014Z,22.05
2022-11-26T00:50:55.783Z,23.08
2022-11-26T00:53:24.240Z,19.17
2022-11-26T00:55:51.326Z,20.00
2022-11-26T00:58:24.846Z,20.00
2022-11-26T01:00:52.828Z,19.83
2022-11-26T01:03:19.840Z,20.95
2022-11-26T01:05:50.458Z,20.70
2022-11-26T01:08:30.562Z,19.73
2022-11-26T01:10:58.566Z,22.65
2022-11-26T01:13:25.867Z,23.77
2022-11-26T01:15:52.659Z,19.83
2022-11-26T01:18:21.509Z,23.38
2022-11-26T01:20:48.792Z,22.42
2022-11-26T01:23:17.002Z,20.95
2022-11-26T01:25:44.281Z,17.88
2022-11-26T01:28:18.381Z,19.40
2022-11-26T01:30:46.327Z,22.77
2022-11-26T01:33:13.173Z,21.05
2022-11-26T01:35:39.895Z,22.88
2022-11-26T01:38:06.785Z,22.67
2022-11-26T01:40:50.104Z,23.70
2022-11-26T01:43:33.767Z,24.65
2022-11-26T01:46:00.681Z,20.33
2022-11-26T01:48:29.236Z,19.15
2022-11-26T01:51:00.592Z,21.88
2022-11-26T01:53:31.797Z,23.67
2022-11-26T01:56:01.163Z,23.17
2022-11-26T01:58:34.454Z,22.17
2022-11-26T02:01:05.654Z,22.70
2022-11-26T02:03:35.805Z,19.35
2022-11-26T02:06:06.165Z,21.77
2022-11-26T02:08:34.786Z,21.52
2022-11-26T02:11:16.351Z,19.35
2022-11-26T02:13:43.910Z,17.60
2022-11-26T02:16:46.159Z,19.38
2022-11-26T02:19:46.074Z,14.38
2022-11-26T02:23:11.621Z,17.27
2022-11-26T02:25:58.755Z,16.60
2022-11-26T02:29:04.026Z,16.60
2022-11-26T02:31:52.088Z,19.90
2022-11-26T02:34:37.512Z,22.05
2022-11-26T02:37:09.894Z,25.35
2022-11-26T02:39:36.720Z,29.55
2022-11-26T02:42:04.578Z,23.15
2022-11-26T02:44:42.277Z,32.00
2022-11-26T02:47:12.068Z,27.63
2022-11-26T02:49:39.575Z,30.38
2022-11-26T02:52:07.917Z,23.35
2022-11-26T02:54:36.843Z,25.85
2022-11-26T02:57:06.444Z,30.90
2022-11-26T02:59:33.569Z,25.65
2022-11-26T03:02:27.993Z,24.40
2022-11-26T03:04:57.538Z,25.25
2022-11-26T03:07:24.629Z,22.48
2022-11-26T03:09:56.834Z,22.40
2022-11-26T03:12:23.595Z,23.13
2022-11-26T03:14:50.303Z,18.63
2022-11-26T03:17:17.875Z,18.65
2022-11-26T03:19:45.876Z,15.20
2022-11-26T03:22:14.221Z,16.70
2022-11-26T03:24:41.337Z,18.17
2022-11-26T03:27:08.628Z,15.80
2022-11-26T03:29:35.825Z,18.65
2022-11-26T03:32:02.721Z,15.73
2022-11-26T03:34:29.832Z,21.08
2022-11-26T03:36:57.239Z,22.25
2022-11-26T03:39:24.096Z,20.55
2022-11-26T03:41:50.980Z,15.52
2022-11-26T03:44:17.675Z,16.95
2022-11-26T03:46:44.441Z,19.10
2022-11-26T03:49:11.331Z,18.08
2022-11-26T03:51:38.167Z,19.73
2022-11-26T03:54:05.175Z,19.60
2022-11-26T03:56:31.925Z,16.85
2022-11-26T03:58:58.680Z,20.45
2022-11-26T04:01:25.962Z,15.68
2022-11-26T04:03:52.897Z,19.10
2022-11-26T04:06:19.661Z,17.15
2022-11-26T04:08:46.466Z,17.20
2022-11-26T04:11:13.436Z,18.75
2022-11-26T04:13:40.194Z,16.35
2022-11-26T04:16:07.306Z,18.85
2022-11-26T04:18:34.072Z,15.90
2022-11-26T04:21:00.988Z,23.70
2022-11-26T04:23:27.990Z,19.63
2022-11-26T04:25:54.923Z,17.58
2022-11-26T04:28:21.947Z,16.20
2022-11-26T04:30:48.569Z,20.23
2022-11-26T04:33:15.313Z,19.75
2022-11-26T04:35:42.789Z,24.27
2022-11-26T04:38:09.743Z,21.58
2022-11-26T04:40:36.914Z,24.98
2022-11-26T04:43:03.801Z,19.27
2022-11-26T04:45:30.719Z,16.40
2022-11-26T04:47:57.546Z,18.63
2022-11-26T04:50:24.822Z,19.23
2022-11-26T04:52:51.564Z,18.63
2022-11-26T04:55:18.443Z,18.27
2022-11-26T04:57:48.966Z,17.35
2022-11-26T05:00:17.464Z,16.13
2022-11-26T05:02:44.383Z,18.63
2022-11-26T05:05:12.183Z,16.10
2022-11-26T05:07:39.285Z,16.20
2022-11-26T05:10:07.549Z,15.43
2022-11-26T05:12:34.517Z,16.30
2022-11-26T05:15:01.309Z,17.08
2022-11-26T05:17:28.358Z,14.38
2022-11-26T05:19:55.172Z,16.10
2022-11-26T05:22:21.932Z,12.15
2022-11-26T05:24:48.702Z,14.00
2022-11-26T05:27:15.720Z,19.40
2022-11-26T05:29:42.833Z,18.40
2022-11-26T05:32:09.717Z,18.45
2022-11-26T05:34:36.982Z,16.83
2022-11-26T05:37:04.473Z,17.10
2022-11-26T05:39:31.158Z,15.63
2022-11-26T05:41:57.854Z,19.50
2022-11-26T05:44:24.801Z,14.18
2022-11-26T05:46:51.848Z,15.38
2022-11-26T05:49:18.562Z,18.88
2022-11-26T05:51:45.229Z,15.45
2022-11-26T05:54:14.022Z,15.45
2022-11-26T05:56:41.618Z,16.83
2022-11-26T05:59:08.963Z,15.48
2022-11-26T06:01:35.826Z,15.43
2022-11-26T06:04:02.708Z,17.88
2022-11-26T06:06:29.624Z,33.35
2022-11-26T06:08:56.841Z,72.18
2022-11-26T06:11:23.622Z,35.38
2022-11-26T06:13:50.401Z,31.23
2022-11-26T06:16:17.443Z,37.72
2022-11-26T06:18:44.271Z,27.85
2022-11-26T06:21:11.714Z,32.95
2022-11-26T06:23:39.215Z,26.35
2022-11-26T06:26:11.811Z,34.92
2022-11-26T06:28:39.605Z,20.23
2022-11-26T06:31:06.580Z,33.55
2022-11-26T06:33:33.506Z,14.63
2022-11-26T06:36:01.636Z,35.20
2022-11-26T06:38:28.691Z,52.33
2022-11-26T06:41:03.691Z,40.33
2022-11-26T06:43:30.800Z,40.47
2022-11-26T06:46:15.974Z,34.15
2022-11-26T06:48:43.128Z,15.60
2022-11-26T06:51:12.499Z,36.45
2022-11-26T06:53:39.450Z,31.33
2022-11-26T06:56:14.803Z,31.83
2022-11-26T06:58:44.949Z,52.70
2022-11-26T07:01:14.884Z,28.02
2022-11-26T07:03:41.800Z,58.83
2022-11-26T07:06:24.693Z,46.95
2022-11-26T07:08:53.145Z,51.22
2022-11-26T07:11:20.782Z,77.00
2022-11-26T07:13:48.020Z,50.63
2022-11-26T07:16:15.140Z,52.20
2022-11-26T07:18:42.220Z,36.65
2022-11-26T07:21:11.894Z,29.15
2022-11-26T07:23:39.191Z,44.38
2022-11-26T07:26:07.767Z,59.72
2022-11-26T07:28:35.405Z,35.20
2022-11-26T07:31:10.256Z,110.53
2022-11-26T07:33:40.492Z,76.50
2022-11-26T07:36:09.612Z,48.35
2022-11-26T07:38:36.389Z,33.58
2022-11-26T07:41:05.567Z,56.42
2022-11-26T07:43:35.087Z,30.35
2022-11-26T07:46:03.236Z,29.10
2022-11-26T07:48:30.835Z,33.13
2022-11-26T07:50:58.730Z,23.10
2022-11-26T07:53:31.125Z,38.45
2022-11-26T07:55:58.172Z,44.47
2022-11-26T07:58:24.983Z,39.22
2022-11-26T08:00:54.590Z,47.05
2022-11-26T08:03:21.779Z,65.57
2022-11-26T08:05:48.568Z,88.47
2022-11-26T08:08:15.369Z,52.38
2022-11-26T08:10:42.526Z,85.55
2022-11-26T08:13:09.225Z,79.22
2022-11-26T08:15:37.534Z,133.07
2022-11-26T08:18:04.433Z,53.80
2022-11-26T08:20:31.151Z,97.88
2022-11-26T08:22:57.820Z,124.03
2022-11-26T08:25:24.612Z,88.57
2022-11-26T08:27:51.254Z,34.55
2022-11-26T08:30:18.178Z,106.70
2022-11-26T08:32:44.985Z,39.97
2022-11-26T08:35:12.795Z,64.72
2022-11-26T08:37:42.339Z,31.92
2022-11-26T08:40:13.852Z,47.28
2022-11-26T08:42:40.926Z,36.78
2022-11-26T08:45:08.334Z,41.60
2022-11-26T08:47:35.490Z,44.40
2022-11-26T08:50:02.231Z,32.47
2022-11-26T08:52:29.000Z,26.75
2022-11-26T08:54:56.131Z,22.85
2022-11-26T08:57:23.122Z,25.08
2022-11-26T08:59:52.084Z,24.60
2022-11-26T09:02:19.200Z,28.20
2022-11-26T09:04:46.557Z,33.15
2022-11-26T09:07:13.643Z,37.35
2022-11-26T09:09:40.637Z,34.80
2022-11-26T09:12:07.796Z,37.95
2022-11-26T09:14:39.695Z,45.20
2022-11-26T09:17:07.601Z,46.22
2022-11-26T09:19:34.718Z,38.88
2022-11-26T09:22:01.487Z,37.55
2022-11-26T09:24:28.466Z,41.35
2022-11-26T09:26:55.256Z,36.10
2022-11-26T09:29:23.304Z,32.15
2022-11-26T09:34:38.336Z,28.67
2022-11-26T09:37:05.727Z,32.90
2022-11-26T09:39:32.550Z,33.83
2022-11-26T09:42:34.360Z,34.03
2022-11-26T09:45:39.965Z,34.15
2022-11-26T09:48:13.807Z,30.85
2022-11-26T09:50:41.884Z,33.95
2022-11-26T09:53:17.076Z,31.13
2022-11-26T09:55:45.815Z,32.13
2022-11-26T09:58:58.115Z,36.17
2022-11-26T10:01:25.265Z,33.63
2022-11-26T10:03:52.813Z,36.40
2022-11-26T10:06:34.822Z,40.35
2022-11-26T10:09:56.861Z,38.78
2022-11-26T10:13:11.249Z,44.05
2022-11-26T10:16:25.239Z,36.88
2022-11-26T10:22:30.977Z,35.63
2022-11-26T10:25:20.324Z,34.15
2022-11-26T10:28:25.959Z,36.13
2022-11-26T10:31:20.807Z,37.83
2022-11-26T10:37:02.983Z,37.13
2022-11-26T10:40:03.252Z,25.70
2022-11-26T10:43:03.293Z,23.67
2022-11-26T10:45:58.242Z,22.55
2022-11-26T10:48:48.761Z,18.33
2022-11-26T10:51:41.352Z,18.33
2022-11-26T10:54:39.080Z,21.55
2022-11-26T10:57:30.876Z,22.15
2022-11-26T11:00:37.519Z,23.98
2022-11-26T11:03:06.911Z,20.58
2022-11-26T11:05:35.340Z,22.67
2022-11-26T11:08:02.375Z,18.27
2022-11-26T11:10:29.865Z,20.63
2022-11-26T11:13:11.518Z,22.63
2022-11-26T11:15:40.625Z,19.58
2022-11-26T11:18:19.690Z,18.52
2022-11-26T11:20:55.958Z,21.48
2022-11-26T11:23:40.366Z,21.63
2022-11-26T11:26:23.986Z,17.98
2022-11-26T11:28:52.669Z,24.02
2022-11-26T11:31:25.509Z,23.20
2022-11-26T11:33:53.176Z,18.67
2022-11-26T11:36:29.640Z,21.13
2022-11-26T11:38:59.173Z,20.35
2022-11-26T11:41:29.935Z,22.65
2022-11-26T11:44:13.615Z,17.27
2022-11-26T11:46:48.676Z,23.75
2022-11-26T11:49:45.093Z,25.05
2022-11-26T11:52:49.598Z,21.27
2022-11-26T11:55:37.074Z,19.10
2022-11-26T11:58:47.639Z,27.52
2022-11-26T12:01:39.163Z,21.58
2022-11-26T12:04:36.960Z,20.75
2022-11-26T12:07:24.235Z,24.17
2022-11-26T12:10:38.114Z,22.13
2022-11-26T12:13:06.896Z,18.48
2022-11-26T12:15:55.714Z,20.58
2022-11-26T12:18:27.379Z,21.20
2022-11-26T12:20:56.679Z,21.35
2022-11-26T12:23:45.402Z,23.75
2022-11-26T12:26:19.891Z,23.27
2022-11-26T12:28:58.436Z,26.38
2022-11-26T12:31:44.768Z,22.10
2022-11-26T12:34:30.605Z,24.77
2022-11-26T12:37:06.172Z,26.75
2022-11-26T12:39:47.985Z,23.77
2022-11-26T12:42:32.306Z,22.85
2022-11-26T12:45:16.269Z,27.25
2022-11-26T12:48:00.728Z,27.15
2022-11-26T12:50:58.464Z,23.23
2022-11-26T12:53:48.080Z,21.20
2022-11-26T12:56:37.526Z,27.20
2022-11-26T12:59:18.919Z,29.70
2022-11-26T13:01:46.016Z,26.52
2022-11-26T13:04:36.570Z,27.52
2022-11-26T13:07:14.374Z,28.23
2022-11-26T13:09:47.539Z,30.80
2022-11-26T13:12:22.897Z,28.87
2022-11-26T13:15:14.877Z,24.65
2022-11-26T13:20:47.212Z,26.92
2022-11-26T13:24:02.121Z,28.33
2022-11-26T13:27:06.036Z,28.20
2022-11-26T13:29:57.343Z,20.50
2022-11-26T13:32:57.252Z,24.08
2022-11-26T13:36:05.614Z,24.35
2022-11-26T13:39:10.049Z,23.58
2022-11-26T13:42:09.635Z,25.90
2022-11-26T13:44:39.493Z,20.10
2022-11-26T13:47:11.107Z,20.27
2022-11-26T13:49:43.390Z,20.80
2022-11-26T13:52:40.820Z,20.48
2022-11-26T13:55:17.869Z,20.27
2022-11-26T13:57:47.963Z,20.65
2022-11-26T14:00:26.031Z,22.17
2022-11-26T14:02:52.931Z,20.73
2022-11-26T14:05:19.793Z,19.23
2022-11-26T14:07:47.143Z,18.00
2022-11-26T14:10:36.190Z,18.67
2022-11-26T14:13:13.536Z,21.15
2022-11-26T14:16:07.392Z,18.48
2022-11-26T14:19:09.750Z,18.40
2022-11-26T14:21:59.507Z,16.15
2022-11-26T14:25:04.764Z,16.98
2022-11-26T14:30:15.657Z,25.77
2022-11-26T14:32:55.221Z,22.48
2022-11-26T14:35:30.687Z,21.58
2022-11-26T14:38:01.928Z,16.20
2022-11-26T14:40:31.768Z,15.98
2022-11-26T14:43:09.341Z,15.43
2022-11-26T14:45:36.186Z,16.13
2022-11-26T14:48:04.278Z,22.02
2022-11-26T14:50:32.842Z,15.25
2022-11-26T14:53:03.945Z,15.52
2022-11-26T14:55:32.104Z,17.25
2022-11-26T14:58:09.964Z,15.75
2022-11-26T15:00:37.003Z,17.58
2022-11-26T15:03:04.279Z,16.42
2022-11-26T15:05:35.491Z,16.42
2022-11-26T15:08:13.306Z,19.98
2022-11-26T15:10:48.144Z,16.40
2022-11-26T15:13:20.272Z,23.25
2022-11-26T15:15:53.691Z,18.40
2022-11-26T15:18:22.667Z,18.42
2022-11-26T15:20:53.355Z,20.52
2022-11-26T15:23:31.232Z,19.23
2022-11-26T15:26:00.490Z,14.18
2022-11-26T15:28:28.217Z,15.23
2022-11-26T15:31:02.613Z,26.50
2022-11-26T15:33:33.204Z,19.48
2022-11-26T15:36:00.470Z,21.10
2022-11-26T15:38:29.902Z,20.00
2022-11-26T15:41:07.320Z,15.32
2022-11-26T15:43:37.204Z,16.23
2022-11-26T15:46:25.019Z,15.32
2022-11-26T15:48:59.226Z,15.65
2022-11-26T15:51:48.943Z,13.85
2022-11-26T15:54:26.434Z,15.55
2022-11-26T15:57:06.489Z,19.38
2022-11-26T15:59:47.299Z,12.50
2022-11-26T16:02:20.786Z,19.90
2022-11-26T16:04:54.380Z,16.60
2022-11-26T16:07:45.041Z,13.37
2022-11-26T16:10:23.616Z,19.58
2022-11-26T16:13:32.553Z,14.15
2022-11-26T16:16:24.760Z,18.48
2022-11-26T16:19:00.301Z,18.95
2022-11-26T16:21:29.593Z,15.48
2022-11-26T16:23:58.259Z,15.73
2022-11-26T16:26:25.256Z,17.83
2022-11-26T16:28:52.064Z,15.40
2022-11-26T16:31:18.917Z,17.73
2022-11-26T16:33:45.962Z,21.40
2022-11-26T16:36:24.052Z,25.55
2022-11-26T16:38:51.537Z,30.30
2022-11-26T16:41:20.374Z,24.60
2022-11-26T16:43:48.085Z,28.20
2022-11-26T16:46:20.523Z,29.13
2022-11-26T16:48:48.335Z,28.38
2022-11-26T16:51:15.177Z,25.40
2022-11-26T16:54:02.736Z,168.63
2022-11-26T16:56:53.263Z,200.07
2022-11-26T16:59:44.868Z,96.55
2022-11-26T17:02:33.690Z,38.35
2022-11-26T17:05:21.383Z,22.77
2022-11-26T17:08:10.614Z,25.02
2022-11-26T17:10:37.892Z,23.38
2022-11-26T17:13:04.801Z,25.83
2022-11-26T17:15:31.694Z,27.45
2022-11-26T17:18:08.270Z,33.92
2022-11-26T17:20:35.039Z,41.13
2022-11-26T17:23:01.817Z,50.53
2022-11-26T17:25:28.833Z,39.50
2022-11-26T17:27:55.943Z,32.00
2022-11-26T17:30:24.617Z,28.55
2022-11-26T17:32:51.712Z,28.35
2022-11-26T17:35:18.979Z,31.00
2022-11-26T17:37:45.973Z,33.45
2022-11-26T17:40:17.633Z,29.42
2022-11-26T17:42:44.414Z,28.30
2022-11-26T17:45:12.160Z,29.83
2022-11-26T17:47:39.344Z,28.45
2022-11-26T17:50:08.486Z,27.80
2022-11-26T17:52:35.262Z,22.83
2022-11-26T17:55:01.970Z,29.08
2022-11-26T17:57:28.741Z,24.92
2022-11-26T17:59:56.169Z,26.33
2022-11-26T18:02:23.025Z,26.30
2022-11-26T18:04:49.735Z,24.00
2022-11-26T18:07:18.585Z,27.40
2022-11-26T18:09:46.125Z,40.55
2022-11-26T18:12:25.171Z,47.20
2022-11-26T18:14:53.928Z,50.97
2022-11-26T18:17:20.662Z,44.75
2022-11-26T18:19:47.628Z,54.67
2022-11-26T18:22:20.671Z,42.22
2022-11-26T18:24:56.790Z,38.15
2022-11-26T18:27:26.888Z,35.40
2022-11-26T18:29:53.679Z,34.40
2022-11-26T18:32:20.773Z,25.08
2022-11-26T18:34:51.697Z,26.80
2022-11-26T18:37:18.819Z,31.75
2022-11-26T18:39:45.618Z,24.33
2022-11-26T18:45:00.212Z,20.73
2022-11-26T18:47:27.213Z,21.05
2022-11-26T18:49:54.083Z,18.80
2022-11-26T18:52:21.097Z,14.50
2022-11-26T18:54:47.983Z,19.15
2022-11-26T18:57:14.836Z,23.38
2022-11-26T18:59:42.017Z,40.70
2022-11-26T19:02:10.773Z,32.70
2022-11-26T19:04:38.561Z,33.50
2022-11-26T19:07:05.304Z,28.60
2022-11-26T19:09:32.261Z,26.08
2022-11-26T19:11:59.359Z,27.13
2022-11-26T19:14:26.065Z,25.15
2022-11-26T19:16:53.217Z,26.95
2022-11-26T19:19:19.998Z,29.95
2022-11-26T19:21:46.960Z,26.60
2022-11-26T19:24:14.449Z,24.60
2022-11-26T19:26:42.388Z,31.77
2022-11-26T19:29:10.804Z,29.00
2022-11-26T19:31:39.922Z,27.55
2022-11-26T19:34:11.789Z,31.83
2022-11-26T19:36:38.674Z,31.85
2022-11-26T19:39:06.533Z,31.95
2022-11-26T19:41:33.990Z,29.58
2022-11-26T19:44:01.501Z,37.33
2022-11-26T19:46:28.425Z,33.88
2022-11-26T19:48:55.987Z,31.40
2022-11-26T19:51:24.688Z,34.90
2022-11-26T19:53:53.000Z,33.60
2022-11-26T19:56:30.836Z,38.67
2022-11-26T19:58:58.811Z,36.72
2022-11-26T20:01:27.569Z,32.92
2022-11-26T20:03:54.626Z,31.10
2022-11-26T20:06:26.490Z,32.22
2022-11-26T20:08:53.662Z,30.30
2022-11-26T20:11:20.473Z,26.95
2022-11-26T20:13:48.416Z,26.98
2022-11-26T20:16:27.766Z,31.10
2022-11-26T20:18:55.438Z,36.38
2022-11-26T20:21:25.800Z,34.13
2022-11-26T20:23:53.735Z,39.63
2022-11-26T20:26:26.054Z,42.60
2022-11-26T20:28:53.269Z,38.08
2022-11-26T20:31:23.936Z,43.92
2022-11-26T20:33:53.124Z,46.55
2022-11-26T20:36:21.197Z,40.28
2022-11-26T20:38:51.423Z,44.65
2022-11-26T20:41:18.318Z,38.40
2022-11-26T20:43:45.716Z,36.55
2022-11-26T20:46:13.819Z,34.55
2022-11-26T20:48:43.155Z,33.38
2022-11-26T20:51:12.968Z,31.05
2022-11-26T20:53:41.396Z,35.55
2022-11-26T20:56:08.691Z,33.08
2022-11-26T20:58:36.151Z,32.95
2022-11-26T21:01:03.247Z,27.58
2022-11-26T21:03:30.384Z,27.45
2022-11-26T21:06:02.052Z,23.83
2022-11-26T21:08:28.766Z,32.65
2022-11-26T21:10:55.528Z,28.17
2022-11-26T21:13:22.969Z,28.55
2022-11-26T21:15:49.751Z,28.77
2022-11-26T21:18:17.035Z,28.08
2022-11-26T21:20:44.666Z,28.50
2022-11-26T21:23:12.804Z,27.38
2022-11-26T21:25:41.515Z,24.38
2022-11-26T21:28:09.219Z,26.63
2022-11-26T21:30:36.686Z,24.60
2022-11-26T21:33:08.998Z,30.08
2022-11-26T21:35:36.702Z,33.38
2022-11-26T21:38:04.639Z,26.80
2022-11-26T21:40:32.183Z,24.55
2022-11-26T21:42:58.974Z,25.63
2022-11-26T21:45:27.942Z,28.10
2022-11-26T21:47:54.878Z,26.05
2022-11-26T21:50:21.717Z,27.88
2022-11-26T21:52:48.728Z,36.03
2022-11-26T21:55:15.815Z,30.58
2022-11-26T21:57:42.531Z,26.15
2022-11-26T22:00:10.001Z,28.23
2022-11-26T22:02:36.911Z,27.15
2022-11-26T22:05:03.997Z,25.58
2022-11-26T22:07:31.762Z,21.15
2022-11-26T22:09:58.708Z,30.77
2022-11-26T22:12:25.652Z,31.77
2022-11-26T22:14:52.362Z,42.45
2022-11-26T22:17:19.421Z,43.50
2022-11-26T22:19:46.882Z,37.25
2022-11-26T22:22:13.689Z,41.47
2022-11-26T22:24:40.498Z,31.63
2022-11-26T22:27:07.229Z,36.47
2022-11-26T22:29:33.906Z,36.00
2022-11-26T22:32:01.108Z,40.20
2022-11-26T22:34:29.392Z,41.85
2022-11-26T22:36:56.809Z,42.20
2022-11-26T22:39:23.652Z,41.20
2022-11-26T22:41:50.645Z,35.60
2022-11-26T22:44:17.972Z,37.15
2022-11-26T22:46:44.972Z,41.72
2022-11-26T22:49:16.458Z,30.80
2022-11-26T22:51:43.249Z,34.03
2022-11-26T22:54:12.953Z,33.40
2022-11-26T22:56:40.105Z,31.63
2022-11-26T22:59:08.965Z,30.90
2022-11-26T23:01:36.835Z,36.78
2022-11-26T23:04:06.124Z,31.05
2022-11-26T23:06:34.459Z,31.77
2022-11-26T23:09:03.552Z,29.67
2022-11-26T23:11:41.581Z,28.67
2022-11-26T23:14:10.116Z,32.35
2022-11-26T23:16:38.774Z,28.60
2022-11-26T23:19:06.519Z,29.27
2022-11-26T23:21:40.157Z,34.80
2022-11-26T23:24:07.675Z,32.45
2022-11-26T23:26:36.952Z,30.25
2022-11-26T23:29:05.276Z,30.33
2022-11-26T23:31:35.037Z,25.35
2022-11-26T23:34:02.097Z,30.33
2022-11-26T23:36:29.607Z,25.95
2022-11-26T23:38:56.923Z,23.67
2022-11-26T23:41:23.729Z,24.65
2022-11-26T23:43:50.641Z,24.25
2022-11-26T23:46:29.551Z,23.55
2022-11-26T23:48:56.686Z,23.65
2022-11-26T23:51:26.030Z,23.38
2022-11-26T23:53:53.497Z,27.73
2022-11-26T23:56:26.636Z,22.25
2022-11-26T23:58:56.256Z,26.60
